Time;durP1;ratioP1;P1;durP2;ratioP2;P2;SDS_P1;SDS_P2;PMS_P1;PMS_P2;Temp;Humidity;BMP_temperature;BMP_pressure;BME280_temperature;BME280_humidity;BME280_pressure;Samples;Min_cycle;Max_cycle;Signal;HPM_P1;HPM_P2
2022/06/08 00:01:16;;;;;;;16.90;15.10;;;16.40;99.90;;;;;;5070490;28;20463;-42
2022/06/08 00:03:48;;;;;;;15.33;13.60;;;16.40;99.90;;;;;;5062228;28;20423;-41
2022/06/08 00:06:16;;;;;;;15.30;13.87;;;16.40;99.90;;;;;;5070395;28;20427;-42
2022/06/08 00:08:42;;;;;;;15.67;14.17;;;16.40;99.90;;;;;;5069746;28;20514;-41
2022/06/08 00:11:08;;;;;;;15.47;13.93;;;16.40;99.90;;;;;;5053880;28;20479;-41
2022/06/08 00:13:34;;;;;;;18.57;16.60;;;16.40;99.90;;;;;;5056400;28;20420;-42
2022/06/08 00:16:01;;;;;;;18.17;16.33;;;16.50;99.90;;;;;;5058886;28;20188;-41
2022/06/08 00:18:27;;;;;;;18.70;16.87;;;16.40;99.90;;;;;;5065870;28;20421;-41
2022/06/08 00:20:53;;;;;;;21.27;19.07;;;16.50;99.90;;;;;;5062539;28;20448;-41
2022/06/08 00:23:18;;;;;;;19.63;17.83;;;16.30;99.90;;;;;;5065339;28;20193;-41
2022/06/08 00:25:45;;;;;;;20.80;18.60;;;16.30;99.90;;;;;;5057599;28;20639;-43
2022/06/08 00:28:11;;;;;;;20.10;18.00;;;16.30;99.90;;;;;;5052669;28;20205;-42
2022/06/08 00:30:37;;;;;;;18.73;16.77;;;16.40;99.90;;;;;;5059131;28;20600;-41
2022/06/08 00:33:03;;;;;;;19.43;17.53;;;16.40;99.90;;;;;;5068169;28;20185;-42
2022/06/08 00:35:29;;;;;;;20.93;17.83;;;16.30;99.90;;;;;;5058780;28;20181;-41
2022/06/08 00:37:54;;;;;;;20.07;18.00;;;16.30;99.90;;;;;;5069116;28;20892;-41
2022/06/08 00:40:29;;;;;;;18.80;16.77;;;16.30;99.90;;;;;;5061852;28;20258;-44
2022/06/08 00:42:55;;;;;;;19.60;17.50;;;16.40;99.90;;;;;;5056288;28;20192;-42
2022/06/08 00:45:23;;;;;;;19.00;16.67;;;16.40;99.90;;;;;;5062245;28;20984;-41
2022/06/08 00:47:54;;;;;;;19.13;17.03;;;16.30;99.90;;;;;;5068737;28;20660;-44
2022/06/08 00:50:46;;;;;;;18.37;16.57;;;16.30;99.90;;;;;;5066906;28;20587;-41
2022/06/08 00:53:15;;;;;;;17.80;16.10;;;16.30;99.90;;;;;;5069026;28;20419;-43
2022/06/08 00:55:41;;;;;;;18.93;17.03;;;16.20;99.90;;;;;;5058783;28;20452;-42
2022/06/08 00:58:25;;;;;;;17.63;15.87;;;16.30;99.90;;;;;;5049516;28;20412;-41
2022/06/08 01:00:52;;;;;;;19.40;16.77;;;16.20;99.90;;;;;;5051554;28;20479;-41
2022/06/08 01:03:18;;;;;;;16.27;14.67;;;16.20;99.90;;;;;;5067613;28;20427;-41
2022/06/08 01:06:06;;;;;;;16.90;15.10;;;16.20;99.90;;;;;;5066813;28;20424;-42
2022/06/08 01:08:47;;;;;;;17.53;15.83;;;16.20;99.90;;;;;;5068539;28;20220;-42
2022/06/08 01:11:36;;;;;;;18.50;16.67;;;16.10;99.90;;;;;;5056228;28;20561;-42
2022/06/08 01:14:06;;;;;;;18.83;17.03;;;16.10;99.90;;;;;;5054406;28;20422;-41
2022/06/08 01:16:32;;;;;;;18.77;16.10;;;16.10;99.90;;;;;;5064089;28;20783;-42
2022/06/08 01:19:01;;;;;;;16.60;14.90;;;16.10;99.90;;;;;;5062429;28;20470;-42
2022/06/08 01:21:27;;;;;;;20.17;17.40;;;16.10;99.90;;;;;;5050444;28;20898;-41
2022/06/08 01:24:00;;;;;;;18.87;17.00;;;16.10;99.90;;;;;;5068963;28;20431;-43
2022/06/08 01:26:41;;;;;;;18.30;16.50;;;16.00;99.90;;;;;;5055762;28;20497;-41
2022/06/08 01:29:31;;;;;;;19.63;17.60;;;16.00;99.90;;;;;;5053312;28;20428;-42
2022/06/08 01:32:06;;;;;;;20.43;18.10;;;16.00;99.90;;;;;;5068603;28;20447;-41
2022/06/08 01:34:41;;;;;;;18.70;16.83;;;15.90;99.90;;;;;;5059543;28;20418;-41
2022/06/08 01:37:14;;;;;;;19.63;17.53;;;15.80;99.90;;;;;;5068331;28;20419;-41
2022/06/08 01:40:08;;;;;;;19.40;17.40;;;15.80;99.90;;;;;;5068684;28;20427;-41
2022/06/08 01:43:00;;;;;;;19.33;17.07;;;15.80;99.90;;;;;;5050126;28;20507;-41
2022/06/08 01:45:37;;;;;;;18.90;16.87;;;15.80;99.90;;;;;;5057122;28;20443;-42
2022/06/08 01:48:20;;;;;;;18.80;16.80;;;15.70;99.90;;;;;;5068000;28;21074;-41
2022/06/08 01:51:10;;;;;;;19.97;17.87;;;15.60;99.90;;;;;;5062516;28;21026;-44
2022/06/08 01:54:00;;;;;;;20.43;17.50;;;15.60;99.90;;;;;;5067091;28;20494;-43
2022/06/08 01:56:53;;;;;;;19.33;17.33;;;15.60;99.90;;;;;;5058764;28;20544;-41
2022/06/08 01:59:36;;;;;;;21.40;17.13;;;15.50;99.90;;;;;;5053877;28;20446;-41
2022/06/08 02:02:27;;;;;;;21.13;18.97;;;15.40;99.90;;;;;;5061709;28;20419;-41
2022/06/08 02:05:04;;;;;;;21.57;18.53;;;15.40;99.90;;;;;;5071656;28;20502;-41
2022/06/08 02:07:42;;;;;;;18.80;16.87;;;15.40;99.90;;;;;;5071907;28;20415;-42
2022/06/08 02:10:31;;;;;;;21.77;17.10;;;15.40;99.90;;;;;;5071478;28;20529;-42
2022/06/08 02:13:10;;;;;;;20.70;18.60;;;15.40;99.90;;;;;;5055520;28;20450;-41
2022/06/08 02:15:40;;;;;;;21.80;17.90;;;15.40;99.90;;;;;;5050998;28;20514;-41
2022/06/08 02:18:37;;;;;;;20.23;17.27;;;15.40;99.90;;;;;;5064426;28;20467;-41
2022/06/08 02:21:15;;;;;;;18.90;16.90;;;15.40;99.90;;;;;;5053600;28;20420;-41
2022/06/08 02:23:54;;;;;;;18.63;16.63;;;15.40;99.90;;;;;;5071147;28;20431;-43
2022/06/08 02:26:46;;;;;;;19.17;17.17;;;15.40;99.90;;;;;;5061981;28;20533;-41
2022/06/08 02:29:21;;;;;;;21.33;17.23;;;15.40;99.90;;;;;;5058858;28;20428;-41
2022/06/08 02:31:49;;;;;;;20.63;17.50;;;15.30;99.90;;;;;;5069851;28;20458;-41
2022/06/08 02:34:31;;;;;;;19.63;16.47;;;15.40;99.90;;;;;;5067834;28;20431;-41
2022/06/08 02:37:11;;;;;;;18.07;16.20;;;15.40;99.90;;;;;;5071254;28;20840;-41
2022/06/08 02:39:52;;;;;;;17.77;15.73;;;15.40;99.90;;;;;;5071846;28;20455;-42
2022/06/08 02:42:31;;;;;;;18.80;15.83;;;15.30;99.90;;;;;;5057801;28;20435;-41
2022/06/08 02:45:11;;;;;;;19.10;15.83;;;15.30;99.90;;;;;;5045904;28;20459;-41
2022/06/08 02:47:39;;;;;;;19.10;17.10;;;15.30;99.90;;;;;;5066508;28;20419;-42
2022/06/08 02:50:14;;;;;;;20.37;16.77;;;15.20;99.90;;;;;;5070793;28;20473;-43
2022/06/08 02:52:45;;;;;;;20.53;17.90;;;15.20;99.90;;;;;;5070335;28;20449;-42
2022/06/08 02:55:32;;;;;;;19.10;16.10;;;15.10;99.90;;;;;;5070346;28;20437;-42
2022/06/08 02:58:11;;;;;;;18.10;15.53;;;15.20;99.90;;;;;;5050900;28;20420;-42
2022/06/08 03:00:48;;;;;;;18.33;15.30;;;15.10;99.90;;;;;;5057909;28;20775;-41
2022/06/08 03:03:41;;;;;;;18.53;16.63;;;15.10;99.90;;;;;;5071590;28;20459;-41
2022/06/08 03:06:11;;;;;;;22.70;16.30;;;15.00;99.90;;;;;;5060868;28;21052;-41
2022/06/08 03:08:47;;;;;;;19.20;15.07;;;15.00;99.90;;;;;;5070640;28;20434;-41
2022/06/08 03:11:15;;;;;;;18.37;16.37;;;15.00;99.90;;;;;;5061064;28;20470;-43
2022/06/08 03:13:48;;;;;;;18.00;15.90;;;15.00;99.90;;;;;;5057316;28;20472;-41
2022/06/08 03:16:26;;;;;;;16.67;13.90;;;15.00;99.90;;;;;;5065730;28;20921;-42
2022/06/08 03:18:51;;;;;;;17.13;15.30;;;14.90;99.90;;;;;;5070472;28;20419;-41
2022/06/08 03:21:17;;;;;;;19.60;16.30;;;14.90;99.90;;;;;;5053504;28;20430;-43
2022/06/08 03:23:43;;;;;;;17.07;15.30;;;14.90;99.90;;;;;;5069381;28;20462;-41
2022/06/08 03:26:09;;;;;;;17.20;14.87;;;14.90;99.90;;;;;;5065822;28;20225;-41
2022/06/08 03:28:34;;;;;;;15.97;14.27;;;14.90;99.90;;;;;;5055592;28;20189;-41
2022/06/08 03:31:00;;;;;;;15.67;13.97;;;14.90;99.90;;;;;;5053404;28;20221;-42
2022/06/08 03:33:26;;;;;;;16.03;14.13;;;14.90;99.90;;;;;;5069608;28;20181;-41
2022/06/08 03:35:52;;;;;;;17.27;15.37;;;14.90;99.90;;;;;;5068408;28;20674;-43
2022/06/08 03:38:17;;;;;;;16.67;14.13;;;14.90;99.90;;;;;;5069886;28;20196;-41
2022/06/08 03:40:43;;;;;;;17.63;14.77;;;14.90;99.90;;;;;;5069879;28;20197;-41
2022/06/08 03:43:10;;;;;;;16.63;13.70;;;14.90;99.90;;;;;;5052966;28;20202;-41
2022/06/08 03:45:45;;;;;;;14.57;12.90;;;14.90;99.90;;;;;;5052275;28;20185;-41
2022/06/08 03:48:11;;;;;;;16.70;13.57;;;15.00;99.90;;;;;;5043732;28;20764;-41
2022/06/08 03:50:43;;;;;;;18.67;13.63;;;14.90;99.90;;;;;;5058295;28;20462;-41
2022/06/08 03:53:18;;;;;;;13.90;12.40;;;14.90;99.90;;;;;;5070625;28;20419;-43
2022/06/08 03:55:47;;;;;;;15.50;13.30;;;14.90;99.90;;;;;;5068685;28;20925;-42
2022/06/08 03:58:13;;;;;;;21.10;12.93;;;14.90;99.90;;;;;;5050961;28;20894;-41
2022/06/08 04:00:41;;;;;;;13.70;12.00;;;15.00;99.90;;;;;;5057605;28;20416;-42
2022/06/08 04:03:09;;;;;;;12.83;10.93;;;15.00;99.90;;;;;;5070346;28;20430;-41
2022/06/08 04:05:35;;;;;;;15.37;12.47;;;15.00;99.90;;;;;;5062689;28;20427;-42
2022/06/08 04:08:01;;;;;;;12.47;10.90;;;15.10;99.90;;;;;;5069642;28;20429;-41
2022/06/08 04:10:27;;;;;;;11.20;10.00;;;15.10;99.90;;;;;;5067076;28;20460;-41
2022/06/08 04:12:53;;;;;;;11.93;9.43;;;15.20;99.90;;;;;;5051475;28;20539;-43
2022/06/08 04:18:03;;;;;;;12.10;10.00;;;15.30;99.90;;;;;;5061268;28;20193;-41
2022/06/08 04:20:29;;;;;;;10.07;8.40;;;15.40;99.90;;;;;;5062340;28;20425;-41
2022/06/08 04:22:55;;;;;;;11.10;8.40;;;15.40;99.90;;;;;;5062697;28;20439;-41
2022/06/08 04:25:20;;;;;;;9.90;8.90;;;15.50;99.90;;;;;;5069451;28;20702;-41
2022/06/08 04:27:46;;;;;;;9.63;8.63;;;15.40;99.90;;;;;;5055538;28;20190;-41
2022/06/08 04:30:12;;;;;;;9.10;8.00;;;15.40;99.90;;;;;;5056560;28;20848;-41
2022/06/08 04:32:38;;;;;;;8.43;7.53;;;15.40;99.90;;;;;;5061737;28;20185;-41
2022/06/08 04:35:04;;;;;;;10.97;7.60;;;15.50;99.90;;;;;;5065244;28;20454;-41
2022/06/08 04:37:30;;;;;;;8.27;7.47;;;15.60;99.90;;;;;;5060654;28;20189;-44
2022/06/08 04:39:55;;;;;;;8.77;7.87;;;15.60;99.90;;;;;;5068572;28;20427;-41
2022/06/08 04:42:21;;;;;;;8.27;7.43;;;15.60;99.90;;;;;;5058706;28;21029;-41
2022/06/08 04:44:47;;;;;;;8.00;7.20;;;15.60;99.90;;;;;;5052153;28;20281;-43
2022/06/08 04:47:12;;;;;;;7.10;6.37;;;15.70;99.90;;;;;;5046413;28;20636;-41
2022/06/08 04:49:38;;;;;;;8.83;7.40;;;15.70;99.90;;;;;;5049099;28;20252;-42
2022/06/08 04:52:05;;;;;;;7.00;6.33;;;15.70;99.90;;;;;;5063027;28;20178;-42
2022/06/08 04:54:32;;;;;;;6.90;6.30;;;15.70;99.90;;;;;;5057997;28;20416;-41
2022/06/08 04:57:00;;;;;;;6.83;6.10;;;15.70;99.90;;;;;;5046318;28;20443;-41
2022/06/08 04:59:26;;;;;;;7.60;6.90;;;15.80;99.90;;;;;;5054459;28;20511;-41
2022/06/08 05:01:51;;;;;;;10.43;6.17;;;15.70;99.90;;;;;;5031654;28;20503;-42
2022/06/08 05:04:17;;;;;;;5.87;5.37;;;15.70;99.90;;;;;;5068122;28;20193;-41
2022/06/08 05:06:43;;;;;;;5.63;5.00;;;15.80;99.90;;;;;;5064255;28;20247;-42
2022/06/08 05:09:08;;;;;;;5.93;5.33;;;15.80;99.90;;;;;;5069127;28;20200;-41
2022/06/08 05:11:34;;;;;;;5.53;5.00;;;15.80;99.90;;;;;;5056671;28;20220;-41
2022/06/08 05:14:00;;;;;;;7.80;5.83;;;15.90;99.90;;;;;;5048204;28;20719;-43
2022/06/08 05:16:25;;;;;;;5.67;5.10;;;16.00;99.90;;;;;;5047668;28;20243;-42
2022/06/08 05:18:51;;;;;;;6.23;5.50;;;15.90;99.90;;;;;;5049370;28;20192;-41
2022/06/08 05:21:17;;;;;;;5.80;5.20;;;16.00;99.90;;;;;;5049921;28;20194;-42
2022/06/08 05:23:43;;;;;;;5.70;5.17;;;16.00;99.90;;;;;;5068075;28;20212;-42
2022/06/08 05:26:10;;;;;;;6.63;5.93;;;16.10;99.90;;;;;;5069160;28;20185;-44
2022/06/08 05:28:36;;;;;;;9.03;6.60;;;16.10;99.90;;;;;;5052455;28;20439;-42
2022/06/08 05:31:02;;;;;;;5.70;5.10;;;16.30;99.90;;;;;;5052563;28;20472;-42
2022/06/08 05:33:28;;;;;;;5.40;4.90;;;16.40;99.90;;;;;;5056394;28;20525;-41
2022/06/08 05:35:56;;;;;;;6.23;5.60;;;16.40;99.90;;;;;;5060032;28;20511;-41
2022/06/08 05:38:22;;;;;;;6.33;5.70;;;16.50;99.90;;;;;;5067384;28;20177;-41
2022/06/08 05:40:48;;;;;;;5.10;4.70;;;16.60;99.90;;;;;;5061298;28;20489;-42
2022/06/08 05:43:14;;;;;;;6.00;5.40;;;16.60;99.90;;;;;;5053613;28;20433;-43
2022/06/08 05:45:42;;;;;;;4.67;4.27;;;16.60;99.90;;;;;;5050357;28;20186;-43
2022/06/08 05:48:09;;;;;;;5.13;4.60;;;16.60;99.90;;;;;;5049409;28;20431;-42
2022/06/08 05:50:36;;;;;;;6.17;5.40;;;16.60;99.90;;;;;;5049987;28;20521;-41
2022/06/08 05:53:02;;;;;;;5.70;4.40;;;16.70;99.90;;;;;;5048810;28;20511;-41
2022/06/08 05:55:28;;;;;;;6.33;4.27;;;16.70;99.90;;;;;;5061650;28;20439;-41
2022/06/08 05:57:54;;;;;;;4.77;4.37;;;16.90;99.90;;;;;;5058660;28;20517;-41
2022/06/08 06:00:26;;;;;;;4.60;4.13;;;17.10;99.90;;;;;;5050222;28;20185;-42
2022/06/08 06:02:52;;;;;;;4.17;3.87;;;17.20;99.90;;;;;;5051733;28;20239;-42
2022/06/08 06:05:20;;;;;;;3.70;3.27;;;17.30;99.90;;;;;;5049691;28;20423;-41
2022/06/08 06:07:46;;;;;;;3.87;3.57;;;17.40;99.90;;;;;;5052665;28;20428;-42
2022/06/08 06:10:14;;;;;;;3.67;3.37;;;17.40;99.90;;;;;;5050870;28;20797;-41
2022/06/08 06:12:40;;;;;;;6.00;3.53;;;17.50;99.90;;;;;;5048019;28;20446;-41
2022/06/08 06:15:06;;;;;;;3.20;3.00;;;17.50;99.90;;;;;;5054156;28;21187;-41
2022/06/08 06:17:32;;;;;;;3.77;3.30;;;17.50;99.90;;;;;;5057096;28;20419;-42
2022/06/08 06:19:59;;;;;;;3.30;3.00;;;17.50;99.90;;;;;;5068388;28;20442;-43
2022/06/08 06:22:25;;;;;;;3.17;2.87;;;17.50;99.90;;;;;;5056555;28;20481;-43
2022/06/08 06:24:51;;;;;;;2.90;2.30;;;17.50;99.90;;;;;;5068580;28;20415;-41
2022/06/08 06:27:17;;;;;;;3.50;2.70;;;17.50;99.90;;;;;;5062905;28;20803;-41
2022/06/08 06:29:42;;;;;;;3.53;3.03;;;17.50;99.90;;;;;;5052375;28;20432;-40
2022/06/08 06:32:24;;;;;;;3.13;2.93;;;17.60;99.90;;;;;;5061102;28;20186;-42
2022/06/08 06:34:50;;;;;;;3.57;3.27;;;17.60;99.90;;;;;;5068525;28;20195;-41
2022/06/08 06:37:16;;;;;;;3.30;3.10;;;17.60;99.90;;;;;;5062135;28;20528;-42
2022/06/08 06:39:42;;;;;;;3.40;3.00;;;17.60;99.90;;;;;;5068345;28;20514;-41
2022/06/08 06:42:15;;;;;;;4.40;2.70;;;17.60;99.90;;;;;;5066505;28;20284;-43
2022/06/08 06:44:41;;;;;;;9.17;3.20;;;17.70;99.90;;;;;;5053361;28;20178;-41
2022/06/08 06:47:07;;;;;;;3.80;2.73;;;17.60;99.90;;;;;;5050994;28;20925;-42
2022/06/08 06:49:33;;;;;;;2.90;2.13;;;17.60;99.90;;;;;;5060759;28;20236;-42
2022/06/08 06:51:58;;;;;;;2.83;2.53;;;17.60;99.90;;;;;;5051189;28;20664;-41
2022/06/08 06:54:24;;;;;;;3.33;2.33;;;17.70;99.90;;;;;;5050530;28;20192;-43
2022/06/08 06:56:50;;;;;;;3.47;3.10;;;17.70;99.90;;;;;;5050513;28;20297;-43
2022/06/08 06:59:16;;;;;;;2.73;2.53;;;17.80;99.90;;;;;;5051341;28;20505;-43
2022/06/08 07:01:41;;;;;;;2.90;2.50;;;17.80;99.90;;;;;;5052371;28;20585;-42
2022/06/08 07:04:07;;;;;;;2.87;2.10;;;17.80;99.90;;;;;;5052904;28;20232;-41
2022/06/08 07:06:33;;;;;;;4.90;2.30;;;17.80;99.90;;;;;;5051037;28;20235;-41
2022/06/08 07:08:59;;;;;;;3.53;2.37;;;18.00;99.90;;;;;;5050865;28;20427;-42
2022/06/08 07:11:41;;;;;;;6.43;1.73;;;18.10;99.90;;;;;;5050824;28;20327;-41
2022/06/08 07:14:13;;;;;;;2.50;2.30;;;18.20;99.90;;;;;;5057570;28;20429;-42
2022/06/08 07:16:39;;;;;;;3.20;2.90;;;18.40;99.90;;;;;;5054133;28;20831;-42
2022/06/08 07:19:06;;;;;;;2.00;1.70;;;18.50;99.90;;;;;;5071023;28;21157;-42
2022/06/08 07:21:32;;;;;;;3.57;2.10;;;18.50;99.90;;;;;;5052707;28;20433;-41
2022/06/08 07:23:58;;;;;;;1.90;1.70;;;18.50;99.90;;;;;;5071380;28;20794;-41
2022/06/08 07:26:24;;;;;;;2.43;1.73;;;18.50;99.90;;;;;;5071258;28;20428;-41
2022/06/08 07:28:54;;;;;;;2.00;1.67;;;18.60;99.90;;;;;;5059864;28;20213;-41
2022/06/08 07:31:21;;;;;;;1.67;1.53;;;18.70;99.90;;;;;;5058465;28;20914;-42
2022/06/08 07:33:47;;;;;;;5.50;1.80;;;18.80;99.90;;;;;;5058051;28;20855;-41
2022/06/08 07:36:14;;;;;;;1.97;1.87;;;18.80;99.90;;;;;;5069283;28;20428;-42
2022/06/08 07:38:40;;;;;;;2.60;1.50;;;18.80;99.90;;;;;;5070181;28;20415;-41
2022/06/08 07:41:06;;;;;;;2.47;1.70;;;18.80;99.90;;;;;;5071019;28;20419;-41
2022/06/08 07:43:32;;;;;;;1.47;1.37;;;18.90;99.90;;;;;;5061431;28;20923;-41
2022/06/08 07:45:58;;;;;;;2.23;1.60;;;19.00;99.90;;;;;;5054042;28;20448;-41
2022/06/08 07:51:09;;;;;;;1.37;1.20;;;18.90;99.90;;;;;;5068902;28;20217;-42
2022/06/08 07:53:34;;;;;;;2.30;1.20;;;19.00;99.90;;;;;;5060287;28;20430;-41
2022/06/08 07:56:01;;;;;;;1.40;1.30;;;18.90;99.90;;;;;;5070097;28;20443;-43
2022/06/08 07:58:26;;;;;;;1.33;1.20;;;18.90;99.90;;;;;;5061281;28;20190;-43
2022/06/08 08:00:53;;;;;;;1.13;1.03;;;18.90;99.90;;;;;;5058978;28;20495;-42
2022/06/08 08:03:20;;;;;;;1.67;1.30;;;18.90;99.90;;;;;;5065414;28;20193;-41
2022/06/08 08:05:47;;;;;;;1.30;1.20;;;19.00;99.90;;;;;;5070414;28;20431;-41
2022/06/08 08:08:15;;;;;;;3.30;1.23;;;19.00;99.90;;;;;;5062877;28;20420;-41
2022/06/08 08:10:41;;;;;;;1.60;1.20;;;19.00;99.90;;;;;;5065168;28;20456;-41
2022/06/08 08:13:10;;;;;;;2.13;1.30;;;18.90;99.90;;;;;;5057669;28;20439;-42
2022/06/08 08:15:36;;;;;;;1.20;1.10;;;19.00;99.90;;;;;;5056027;28;20431;-41
2022/06/08 08:18:02;;;;;;;1.63;1.53;;;19.10;99.90;;;;;;5052681;28;20436;-40
2022/06/08 08:20:29;;;;;;;1.70;1.17;;;19.20;99.90;;;;;;5064861;28;20190;-41
2022/06/08 08:22:58;;;;;;;2.57;1.17;;;19.20;99.90;;;;;;5062626;28;20428;-41
2022/06/08 08:25:24;;;;;;;1.60;1.20;;;19.30;99.90;;;;;;5070043;28;20501;-41
2022/06/08 08:27:52;;;;;;;1.13;1.03;;;19.30;99.90;;;;;;5068068;28;20431;-42
2022/06/08 08:30:20;;;;;;;1.27;1.17;;;19.30;99.90;;;;;;5053964;28;20462;-42
2022/06/08 08:32:46;;;;;;;2.23;1.00;;;19.50;99.90;;;;;;5051266;28;20503;-41
2022/06/08 08:35:12;;;;;;;1.10;1.00;;;19.60;99.90;;;;;;5069962;28;20435;-41
2022/06/08 08:37:39;;;;;;;1.33;0.90;;;19.70;99.90;;;;;;5058060;28;20852;-43
2022/06/08 08:40:11;;;;;;;1.30;1.20;;;19.70;99.90;;;;;;5068512;28;20411;-41
2022/06/08 08:42:37;;;;;;;1.97;1.33;;;19.80;99.90;;;;;;5069269;28;20549;-40
2022/06/08 08:45:11;;;;;;;2.50;1.17;;;19.90;99.90;;;;;;5052063;28;20954;-41
2022/06/08 08:47:39;;;;;;;1.30;1.10;;;19.80;99.90;;;;;;5055063;28;20185;-41
2022/06/08 08:50:29;;;;;;;1.33;1.03;;;19.90;99.90;;;;;;5069247;28;20979;-43
2022/06/08 08:53:05;;;;;;;3.20;1.30;;;20.00;99.90;;;;;;5061725;28;20418;-40
2022/06/08 08:56:07;;;;;;;1.23;1.07;;;20.10;99.90;;;;;;5067115;28;20529;-40
2022/06/08 08:58:40;;;;;;;1.20;1.00;;;20.20;99.90;;;;;;5062697;28;20432;-40
2022/06/08 09:01:35;;;;;;;1.57;1.30;;;20.30;99.90;;;;;;5057486;28;20415;-41
2022/06/08 09:04:25;;;;;;;1.60;1.50;;;20.50;99.90;;;;;;5049865;28;20435;-43
2022/06/08 09:06:51;;;;;;;1.30;1.20;;;20.60;99.90;;;;;;5065230;28;20852;-41
2022/06/08 09:09:38;;;;;;;1.43;1.27;;;20.70;99.90;;;;;;5069235;28;20561;-41
2022/06/08 09:12:04;;;;;;;3.73;1.43;;;20.80;99.90;;;;;;5055422;28;20536;-40
2022/06/08 09:14:48;;;;;;;1.17;1.07;;;20.90;99.90;;;;;;5056981;28;20962;-41
2022/06/08 09:17:23;;;;;;;1.77;1.60;;;20.90;99.90;;;;;;5054464;28;20423;-41
2022/06/08 09:19:50;;;;;;;2.47;1.27;;;21.00;99.90;;;;;;5062397;28;20469;-43
2022/06/08 09:22:28;;;;;;;2.37;1.47;;;21.10;99.90;;;;;;5049942;28;20450;-42
2022/06/08 09:24:57;;;;;;;1.50;1.30;;;21.40;99.90;;;;;;5063907;28;20488;-41
2022/06/08 09:27:30;;;;;;;2.50;1.50;;;21.50;99.90;;;;;;5068655;28;20477;-41
2022/06/08 09:29:58;;;;;;;5.00;1.57;;;21.50;99.90;;;;;;5054697;28;20507;-41
2022/06/08 09:32:59;;;;;;;1.63;1.20;;;21.60;99.90;;;;;;5058614;28;20775;-41
2022/06/08 09:35:32;;;;;;;2.50;1.67;;;21.60;99.90;;;;;;5056575;28;20442;-42
2022/06/08 09:38:13;;;;;;;3.50;1.50;;;21.50;99.90;;;;;;5058597;28;20416;-41
2022/06/08 09:40:58;;;;;;;3.13;1.50;;;21.40;99.90;;;;;;5069194;28;20525;-41
2022/06/08 09:43:42;;;;;;;3.93;1.80;;;21.40;99.90;;;;;;5065732;28;20792;-41
2022/06/08 09:51:25;;;;;;;3.27;1.10;;;21.30;99.90;;;;;;5049186;28;20459;-41
2022/06/08 09:52:23;;;;;;;3.20;2.10;;;21.30;99.90;;;;;;5065256;28;20534;-41
2022/06/08 09:54:54;;;;;;;2.17;1.30;;;21.30;99.90;;;;;;5067959;28;20423;-40
2022/06/08 09:57:48;;;;;;;3.70;2.07;;;21.10;99.90;;;;;;5068007;28;20439;-41
2022/06/08 10:00:41;;;;;;;3.00;1.50;;;21.00;99.90;;;;;;5051953;28;20431;-41
2022/06/08 10:03:35;;;;;;;4.83;1.43;;;21.10;99.90;;;;;;5046147;28;20470;-41
2022/06/08 10:06:18;;;;;;;3.30;1.20;;;21.20;99.90;;;;;;5068203;28;20430;-41
2022/06/08 10:08:53;;;;;;;1.97;1.40;;;21.10;99.90;;;;;;5067551;28;20469;-41
2022/06/08 10:12:11;;;;;;;3.20;1.47;;;21.30;99.90;;;;;;5058171;28;20506;-41
2022/06/08 10:15:29;;;;;;;2.87;1.20;;;21.30;99.90;;;;;;5046541;28;20440;-41
2022/06/08 10:18:10;;;;;;;5.07;1.47;;;21.30;99.90;;;;;;5046094;28;20482;-41
2022/06/08 10:20:39;;;;;;;2.40;1.43;;;21.40;99.90;;;;;;5062572;28;20490;-41
2022/06/08 10:23:10;;;;;;;2.83;1.60;;;21.30;99.90;;;;;;5052547;28;20515;-41
2022/06/08 10:25:46;;;;;;;2.30;1.40;;;21.30;99.90;;;;;;5072403;28;20871;-44
2022/06/08 10:28:36;;;;;;;1.97;1.17;;;21.30;99.90;;;;;;5071516;28;20913;-40
2022/06/08 10:31:11;;;;;;;2.83;1.30;;;21.30;99.90;;;;;;5052890;28;20503;-41
2022/06/08 10:33:45;;;;;;;5.53;2.03;;;21.40;99.90;;;;;;5059134;28;20422;-40
2022/06/08 10:36:11;;;;;;;3.93;1.40;;;21.40;99.90;;;;;;5072178;28;20476;-40
2022/06/08 10:38:42;;;;;;;2.70;1.30;;;21.40;99.90;;;;;;5065867;28;20932;-41
2022/06/08 10:43:55;;;;;;;2.43;1.20;;;21.60;99.90;;;;;;5068874;28;22824;-41
2022/06/08 10:46:42;;;;;;;3.47;1.37;;;21.70;99.90;;;;;;5056258;28;20439;-41
2022/06/08 10:49:19;;;;;;;1.43;0.90;;;21.80;99.90;;;;;;5066127;28;20518;-40
2022/06/08 10:52:04;;;;;;;2.10;1.30;;;21.80;99.90;;;;;;5071467;28;20850;-41
2022/06/08 10:54:54;;;;;;;1.77;1.23;;;21.80;99.90;;;;;;5068439;28;20477;-41
2022/06/08 10:57:40;;;;;;;2.33;1.23;;;21.80;99.90;;;;;;5070913;28;20457;-41
2022/06/08 11:00:24;;;;;;;2.47;1.40;;;21.90;99.90;;;;;;5058404;28;20438;-41
2022/06/08 11:03:00;;;;;;;1.80;1.37;;;21.90;99.90;;;;;;5054677;28;20787;-42
2022/06/08 11:05:36;;;;;;;2.63;1.80;;;22.00;99.90;;;;;;5059548;28;20472;-41
2022/06/08 11:08:01;;;;;;;1.70;1.60;;;22.20;99.90;;;;;;5063823;28;20864;-41
2022/06/08 11:10:47;;;;;;;2.37;1.47;;;22.20;99.90;;;;;;5063306;28;20486;-41
2022/06/08 11:13:22;;;;;;;2.03;1.83;;;22.30;99.90;;;;;;5063920;28;20185;-41
2022/06/08 11:15:53;;;;;;;1.63;1.47;;;22.30;99.90;;;;;;5056900;28;20769;-41
2022/06/08 11:18:46;;;;;;;2.93;1.50;;;22.30;99.90;;;;;;5055421;28;20431;-41
2022/06/08 11:21:15;;;;;;;6.23;1.40;;;22.10;99.90;;;;;;5061300;28;20562;-41
2022/06/08 11:24:01;;;;;;;2.63;1.70;;;22.00;99.90;;;;;;5064629;28;20420;-41
2022/06/08 11:26:36;;;;;;;2.40;1.90;;;22.00;99.90;;;;;;5071372;28;20434;-41
2022/06/08 11:29:17;;;;;;;3.13;1.40;;;21.90;99.90;;;;;;5069404;28;20590;-41
2022/06/08 11:31:42;;;;;;;1.97;1.60;;;21.80;99.90;;;;;;5051337;28;20455;-41
2022/06/08 11:34:20;;;;;;;3.17;1.70;;;21.70;99.90;;;;;;5054605;28;20427;-42
2022/06/08 11:37:07;;;;;;;3.20;1.83;;;21.60;99.90;;;;;;5070226;28;20645;-42
2022/06/08 11:40:09;;;;;;;2.33;1.43;;;21.60;99.90;;;;;;5069709;28;20443;-41
2022/06/08 11:42:47;;;;;;;5.33;1.53;;;21.30;99.90;;;;;;5070815;28;20426;-40
2022/06/08 11:45:41;;;;;;;3.00;2.07;;;20.70;99.90;;;;;;5060778;28;20471;-41
2022/06/08 11:48:09;;;;;;;2.90;1.70;;;20.10;99.90;;;;;;5058599;28;20415;-41
2022/06/08 11:50:44;;;;;;;3.00;1.70;;;19.90;99.90;;;;;;5070039;28;20454;-40
2022/06/08 11:53:24;;;;;;;4.53;2.33;;;19.40;99.90;;;;;;5065096;28;20434;-41
2022/06/08 11:56:02;;;;;;;3.03;1.87;;;18.90;99.90;;;;;;5066412;28;20439;-40
2022/06/08 11:58:29;;;;;;;4.90;2.57;;;18.60;99.90;;;;;;5069783;28;20861;-42
2022/06/08 12:01:08;;;;;;;3.57;2.50;;;18.60;99.90;;;;;;5058692;28;20965;-40
2022/06/08 12:03:38;;;;;;;6.57;2.67;;;18.20;99.90;;;;;;5052916;28;20515;-40
2022/06/08 12:06:14;;;;;;;7.63;2.67;;;18.00;99.90;;;;;;5044177;28;20972;-41
2022/06/08 12:08:54;;;;;;;5.50;2.87;;;17.90;99.90;;;;;;5061737;28;20469;-43
2022/06/08 12:11:23;;;;;;;5.47;2.07;;;17.90;99.90;;;;;;5059983;28;20459;-41
2022/06/08 12:13:57;;;;;;;3.93;3.00;;;17.90;99.90;;;;;;5067916;28;20423;-40
2022/06/08 12:16:36;;;;;;;5.60;3.10;;;17.90;99.90;;;;;;5052725;28;20436;-40
2022/06/08 12:19:18;;;;;;;7.23;3.30;;;17.80;99.90;;;;;;5046260;28;20795;-41
2022/06/08 12:22:05;;;;;;;5.03;3.50;;;17.80;99.90;;;;;;5053659;28;20428;-41
2022/06/08 12:24:31;;;;;;;5.10;3.17;;;17.90;99.90;;;;;;5066866;28;21135;-41
2022/06/08 12:27:24;;;;;;;6.83;3.60;;;18.00;99.90;;;;;;5069325;28;20438;-40
2022/06/08 12:29:57;;;;;;;4.30;3.30;;;18.00;99.90;;;;;;5065610;28;20456;-41
2022/06/08 12:32:27;;;;;;;7.63;3.90;;;17.80;99.90;;;;;;5050391;28;20424;-41
2022/06/08 12:35:04;;;;;;;4.00;3.40;;;17.80;99.90;;;;;;5057251;28;20956;-40
2022/06/08 12:37:38;;;;;;;5.37;3.20;;;17.60;99.90;;;;;;5069181;28;20449;-40
2022/06/08 12:40:16;;;;;;;6.80;3.27;;;17.60;99.90;;;;;;5056962;28;20447;-41
2022/06/08 12:43:10;;;;;;;3.57;3.13;;;17.50;99.90;;;;;;5068469;28;21051;-40
2022/06/08 12:46:04;;;;;;;5.20;2.93;;;17.40;99.90;;;;;;5057718;28;20432;-41
2022/06/08 12:48:36;;;;;;;5.20;3.40;;;17.50;99.90;;;;;;5055384;28;20419;-40
2022/06/08 12:51:29;;;;;;;6.50;3.70;;;17.40;99.90;;;;;;5062389;28;20845;-40
2022/06/08 12:53:56;;;;;;;4.83;3.40;;;17.40;99.90;;;;;;5059801;28;20426;-41
2022/06/08 12:56:22;;;;;;;6.33;3.50;;;17.40;99.90;;;;;;5069311;28;20443;-40
2022/06/08 12:58:52;;;;;;;6.13;2.97;;;17.50;99.90;;;;;;5068570;28;21344;-40
2022/06/08 13:01:20;;;;;;;5.30;3.07;;;17.50;99.90;;;;;;5055975;28;20471;-40
2022/06/08 13:03:46;;;;;;;4.13;2.90;;;17.50;99.90;;;;;;5053052;28;20482;-40
2022/06/08 13:06:13;;;;;;;5.90;3.57;;;17.60;99.90;;;;;;5057738;28;20454;-43
2022/06/08 13:08:40;;;;;;;4.50;3.03;;;17.60;99.90;;;;;;5065015;28;20428;-41
2022/06/08 13:11:13;;;;;;;4.97;3.43;;;17.60;99.90;;;;;;5061008;28;20455;-40
2022/06/08 13:13:40;;;;;;;4.10;3.50;;;17.60;99.90;;;;;;5065176;28;21805;-41
2022/06/08 13:16:22;;;;;;;4.67;3.43;;;17.60;99.90;;;;;;5057747;28;20436;-41
2022/06/08 13:18:52;;;;;;;3.80;3.00;;;17.60;99.90;;;;;;5049359;28;20435;-40
2022/06/08 13:21:18;;;;;;;5.80;3.00;;;17.70;99.90;;;;;;5043284;28;20431;-41